Time,TemperatureF,DewpointF,PressureIn,WindDirection,WindDirectionDegrees,WindSpeedMPH,WindSpeedGustMPH,Humidity,HourlyPrecipIn,Conditions,Clouds,dailyrainin,SoftwareType,DateUTC
2013-02-19 00:01:00,24.0,13.0,29.92,NW,304,0.0,0.0,62,0.00,,,0.00,,2013-02-19 08:01:00,
2013-02-19 00:11:00,24.0,13.0,29.92,NW,304,0.0,0.0,62,0.00,,,0.00,,2013-02-19 08:11:00,
2013-02-19 00:21:00,24.0,13.0,29.92,NW,304,0.0,0.0,61,0.00,,,0.00,,2013-02-19 08:21:00,
2013-02-19 00:31:00,24.0,12.0,29.91,NW,304,0.0,0.0,60,0.00,,,0.00,,2013-02-19 08:31:00,
2013-02-19 00:41:00,24.0,12.0,29.91,NW,304,0.0,0.0,60,0.00,,,0.00,,2013-02-19 08:41:00,
2013-02-19 00:52:00,24.0,12.0,29.91,NW,304,0.0,0.0,60,0.00,,,0.00,,2013-02-19 08:52:00,
2013-02-19 01:01:00,24.0,12.0,29.91,NW,304,0.0,0.0,60,0.00,,,0.00,,2013-02-19 09:01:00,
2013-02-19 01:11:00,24.0,12.0,29.91,NW,304,0.0,0.0,60,0.00,,,0.00,,2013-02-19 09:11:00,
2013-02-19 01:21:00,23.0,7.0,29.91,NW,304,0.0,0.0,50,0.00,,,0.00,,2013-02-19 09:21:00,
2013-02-19 01:32:00,23.0,7.0,29.90,NW,304,0.0,0.0,50,0.00,,,0.00,,2013-02-19 09:32:00,
2013-02-19 01:42:00,23.0,7.0,29.90,NW,304,0.0,0.0,50,0.00,,,0.00,,2013-02-19 09:42:00,
2013-02-19 01:53:00,22.0,7.0,29.90,NW,304,0.0,0.0,52,0.00,,,0.00,,2013-02-19 09:53:00,
2013-02-19 02:01:00,22.0,6.0,29.89,WSW,247,0.0,0.0,49,0.00,,,0.00,,2013-02-19 10:01:00,
2013-02-19 02:11:00,22.0,6.0,29.89,WSW,247,0.0,0.0,49,0.00,,,0.00,,2013-02-19 10:11:00,
2013-02-19 02:21:00,21.0,5.0,29.88,WSW,247,0.0,0.0,49,0.00,,,0.00,,2013-02-19 10:21:00,
2013-02-19 02:31:00,21.0,7.0,29.88,WSW,247,0.0,0.0,55,0.00,,,0.00,,2013-02-19 10:31:00,
2013-02-19 02:41:00,21.0,7.0,29.88,WSW,247,0.0,0.0,55,0.00,,,0.00,,2013-02-19 10:41:00,
2013-02-19 02:51:00,21.0,7.0,29.88,WSW,247,0.0,0.0,54,0.00,,,0.00,,2013-02-19 10:51:00,
2013-02-19 03:01:00,23.0,7.0,29.87,West,277,0.0,0.0,50,0.00,,,0.00,,2013-02-19 11:01:00,
2013-02-19 03:11:00,23.0,7.0,29.87,West,277,0.0,0.0,50,0.00,,,0.00,,2013-02-19 11:11:00,
2013-02-19 03:21:00,22.0,7.0,29.87,West,277,0.0,0.0,52,0.00,,,0.00,,2013-02-19 11:21:00,
2013-02-19 03:31:00,21.0,6.0,29.86,West,277,0.0,0.0,51,0.00,,,0.00,,2013-02-19 11:31:00,
2013-02-19 03:42:00,21.0,6.0,29.86,West,277,0.0,0.0,51,0.00,,,0.00,,2013-02-19 11:42:00,
2013-02-19 03:52:00,21.0,6.0,29.86,West,277,0.0,0.0,51,0.00,,,0.00,,2013-02-19 11:52:00,
2013-02-19 04:01:00,21.0,5.0,29.85,West,277,0.0,1.0,50,0.00,,,0.00,,2013-02-19 12:01:00,
2013-02-19 04:12:00,21.0,5.0,29.85,West,277,0.0,1.0,50,0.00,,,0.00,,2013-02-19 12:12:00,
2013-02-19 04:21:00,20.0,4.0,29.85,West,277,0.0,0.0,50,0.00,,,0.00,,2013-02-19 12:21:00,
2013-02-19 04:32:00,21.0,7.0,29.85,West,277,0.0,0.0,54,0.00,,,0.00,,2013-02-19 12:32:00,
2013-02-19 04:42:00,21.0,7.0,29.85,West,277,0.0,0.0,54,0.00,,,0.00,,2013-02-19 12:42:00,
2013-02-19 04:52:00,21.0,7.0,29.85,West,277,0.0,0.0,55,0.00,,,0.00,,2013-02-19 12:52:00,
2013-02-19 05:01:00,21.0,7.0,29.84,West,277,0.0,0.0,55,0.00,,,0.00,,2013-02-19 13:01:00,
2013-02-19 05:11:00,21.0,7.0,29.84,West,277,0.0,0.0,55,0.00,,,0.00,,2013-02-19 13:11:00,
2013-02-19 05:22:00,21.0,4.0,29.84,West,277,0.0,0.0,48,0.00,,,0.00,,2013-02-19 13:22:00,
2013-02-19 05:31:00,20.0,2.0,29.84,West,277,0.0,0.0,45,0.00,,,0.00,,2013-02-19 13:31:00,
2013-02-19 05:42:00,20.0,2.0,29.84,West,277,0.0,0.0,45,0.00,,,0.00,,2013-02-19 13:42:00,
2013-02-19 05:52:00,21.0,3.0,29.84,West,277,0.0,0.0,45,0.00,,,0.00,,2013-02-19 13:52:00,
2013-02-19 06:01:00,21.0,-1.0,29.85,West,277,0.0,0.0,38,0.00,,,0.00,,2013-02-19 14:01:00,
2013-02-19 06:11:00,21.0,-1.0,29.85,West,277,0.0,0.0,38,0.00,,,0.00,,2013-02-19 14:11:00,
2013-02-19 06:21:00,22.0,-1.0,29.85,West,281,0.0,0.0,36,0.00,,,0.00,,2013-02-19 14:21:00,
2013-02-19 06:32:00,23.0,1.0,29.84,NW,319,0.0,0.0,38,0.00,,,0.00,,2013-02-19 14:32:00,
2013-02-19 06:41:00,23.0,1.0,29.84,NW,319,0.0,0.0,38,0.00,,,0.00,,2013-02-19 14:41:00,
2013-02-19 06:52:00,22.0,0.0,29.84,NW,319,0.0,0.0,38,0.00,,,0.00,,2013-02-19 14:52:00,
2013-02-19 07:01:00,22.0,0.0,29.84,NW,319,0.0,0.0,38,0.00,,,0.00,,2013-02-19 15:01:00,
2013-02-19 07:11:00,22.0,0.0,29.84,NW,319,0.0,0.0,38,0.00,,,0.00,,2013-02-19 15:11:00,
2013-02-19 07:21:00,21.0,-1.0,29.84,NW,313,0.0,0.0,38,0.00,,,0.00,,2013-02-19 15:21:00,
2013-02-19 07:31:00,22.0,0.0,29.84,NW,313,0.0,0.0,38,0.00,,,0.00,,2013-02-19 15:31:00,
2013-02-19 07:42:00,22.0,0.0,29.84,NW,313,0.0,0.0,38,0.00,,,0.00,,2013-02-19 15:42:00,
2013-02-19 07:52:00,24.0,3.0,29.84,NW,313,0.0,0.0,40,0.00,,,0.00,,2013-02-19 15:52:00,
2013-02-19 08:01:00,25.0,4.0,29.84,NW,313,0.0,0.0,40,0.00,,,0.00,,2013-02-19 16:01:00,
2013-02-19 08:11:00,25.0,4.0,29.84,NW,313,0.0,0.0,40,0.00,,,0.00,,2013-02-19 16:11:00,
2013-02-19 08:21:00,27.0,6.0,29.83,NW,313,0.0,0.0,40,0.00,,,0.00,,2013-02-19 16:21:00,
2013-02-19 08:31:00,28.0,7.0,29.83,NW,313,0.0,0.0,40,0.00,,,0.00,,2013-02-19 16:31:00,
2013-02-19 08:41:00,28.0,7.0,29.83,NW,313,0.0,0.0,40,0.00,,,0.00,,2013-02-19 16:41:00,
2013-02-19 08:52:00,31.0,1.0,29.83,SW,219,0.0,0.0,27,0.00,,,0.00,,2013-02-19 16:52:00,
2013-02-19 09:01:00,37.0,-6.0,29.82,SW,229,0.0,4.0,15,0.00,,,0.00,,2013-02-19 17:01:00,
2013-02-19 09:11:00,37.0,-6.0,29.82,SW,229,0.0,4.0,15,0.00,,,0.00,,2013-02-19 17:11:00,
2013-02-19 09:21:00,40.0,-8.0,29.82,SW,227,0.0,0.0,12,0.00,,,0.00,,2013-02-19 17:21:00,
2013-02-19 09:31:00,41.0,-8.0,29.81,WSW,243,0.0,2.0,12,0.00,,,0.00,,2013-02-19 17:31:00,
2013-02-19 09:41:00,41.0,-8.0,29.81,WSW,243,0.0,2.0,12,0.00,,,0.00,,2013-02-19 17:41:00,
2013-02-19 09:52:00,43.0,-6.0,29.81,SW,222,1.0,6.0,12,0.00,,,0.00,,2013-02-19 17:52:00,
2013-02-19 10:01:00,42.0,2.0,29.80,SSW,198,1.0,1.0,18,0.00,,,0.00,,2013-02-19 18:01:00,
2013-02-19 10:11:00,42.0,2.0,29.80,SSW,198,1.0,1.0,18,0.00,,,0.00,,2013-02-19 18:11:00,
2013-02-19 10:21:00,41.0,1.0,29.81,NW,322,1.0,5.0,18,0.00,,,0.00,,2013-02-19 18:21:00,
2013-02-19 10:31:00,38.0,-2.0,29.81,SSW,196,0.0,0.0,18,0.00,,,0.00,,2013-02-19 18:31:00,
2013-02-19 10:41:00,39.0,-1.0,29.81,SSW,198,2.0,6.0,18,0.00,,,0.00,,2013-02-19 18:41:00,
2013-02-19 10:51:00,39.0,-1.0,29.81,SSW,198,2.0,6.0,18,0.00,,,0.00,,2013-02-19 18:51:00,
2013-02-19 11:01:00,37.0,-3.0,29.81,NNW,329,3.0,6.0,18,0.00,,,0.00,,2013-02-19 19:01:00,
2013-02-19 11:21:00,37.0,20.0,29.81,SW,233,1.0,0.0,50,0.00,,,0.00,,2013-02-19 19:21:00,
2013-02-19 11:31:00,38.0,21.0,29.80,WSW,257,0.0,0.0,50,0.00,,,0.00,,2013-02-19 19:31:00,
2013-02-19 11:40:00,40.0,23.0,29.79,WSW,244,0.0,5.0,50,0.00,,,0.00,,2013-02-19 19:40:00,
2013-02-19 11:41:00,38.0,21.0,29.80,WSW,257,0.0,0.0,50,0.00,,,0.00,,2013-02-19 19:41:00,
2013-02-19 11:52:00,40.0,23.0,29.80,WSW,244,0.0,4.0,50,0.00,,,0.00,,2013-02-19 19:52:00,
2013-02-19 12:01:00,40.0,23.0,29.79,WSW,244,0.0,5.0,50,0.00,,,0.00,,2013-02-19 20:01:00,
2013-02-19 12:31:00,40.0,23.0,29.79,WSW,244,0.0,5.0,50,0.00,,,0.00,,2013-02-19 20:31:00,
2013-02-19 12:52:00,36.0,19.0,29.79,SSW,209,4.0,9.0,50,0.00,,,0.00,,2013-02-19 20:52:00,
2013-02-19 13:01:00,35.0,18.0,29.78,South,191,7.0,9.0,50,0.00,,,0.00,,2013-02-19 21:01:00,
2013-02-19 13:11:00,35.0,18.0,29.78,South,191,7.0,9.0,50,0.00,,,0.00,,2013-02-19 21:11:00,
2013-02-19 13:21:00,34.0,20.0,29.77,SW,219,0.0,6.0,55,0.00,,,0.00,,2013-02-19 21:21:00,
2013-02-19 13:31:00,33.0,20.0,29.76,SW,215,4.0,13.0,59,0.00,,,0.00,,2013-02-19 21:31:00,
2013-02-19 13:42:00,33.0,20.0,29.76,SW,215,4.0,13.0,59,0.00,,,0.00,,2013-02-19 21:42:00,
2013-02-19 13:52:00,33.0,21.0,29.77,WSW,243,0.0,17.0,61,0.00,,,0.00,,2013-02-19 21:52:00,
2013-02-19 14:01:00,31.0,20.0,29.77,NW,313,2.0,6.0,63,0.00,,,0.00,,2013-02-19 22:01:00,
2013-02-19 14:11:00,31.0,20.0,29.77,NW,313,2.0,6.0,63,0.00,,,0.00,,2013-02-19 22:11:00,
2013-02-19 14:21:00,30.0,19.0,29.76,SW,226,2.0,9.0,63,0.00,,,0.00,,2013-02-19 22:21:00,
2013-02-19 14:31:00,30.0,19.0,29.76,SW,232,4.0,9.0,63,0.00,,,0.00,,2013-02-19 22:31:00,
2013-02-19 14:41:00,30.0,19.0,29.76,SW,232,4.0,9.0,63,0.00,,,0.00,,2013-02-19 22:41:00,
2013-02-19 14:52:00,29.0,21.0,29.75,SW,219,2.0,7.0,72,0.00,,,0.00,,2013-02-19 22:52:00,
2013-02-19 15:01:00,30.0,23.0,29.75,SW,219,3.0,6.0,74,0.00,,,0.00,,2013-02-19 23:01:00,
2013-02-19 15:11:00,30.0,23.0,29.75,SW,219,3.0,6.0,74,0.00,,,0.00,,2013-02-19 23:11:00,
2013-02-19 15:21:00,29.0,22.0,29.75,South,182,3.0,9.0,74,0.00,,,0.00,,2013-02-19 23:21:00,
2013-02-19 15:31:00,28.0,21.0,29.74,NW,320,0.0,9.0,74,0.00,,,0.00,,2013-02-19 23:31:00,
2013-02-19 15:41:00,28.0,21.0,29.74,NW,320,0.0,9.0,74,0.00,,,0.00,,2013-02-19 23:41:00,
2013-02-19 15:52:00,28.0,21.0,29.73,WNW,301,0.0,1.0,74,0.00,,,0.00,,2013-02-19 23:52:00,
2013-02-19 16:01:00,28.0,23.0,29.72,NW,322,0.0,2.0,81,0.00,,,0.00,,2013-02-20 00:01:00,
2013-02-19 16:11:00,28.0,23.0,29.72,NW,322,0.0,2.0,81,0.00,,,0.00,,2013-02-20 00:11:00,
2013-02-19 16:21:00,28.0,23.0,29.72,NNE,25,0.0,2.0,81,0.00,,,0.00,,2013-02-20 00:21:00,
2013-02-19 16:31:00,28.0,23.0,29.72,SW,236,1.0,0.0,80,0.00,,,0.00,,2013-02-20 00:31:00,
2013-02-19 16:41:00,28.0,23.0,29.72,SW,236,1.0,0.0,80,0.00,,,0.00,,2013-02-20 00:41:00,
2013-02-19 16:51:00,29.0,24.0,29.70,SW,234,3.0,7.0,82,0.00,,,0.00,,2013-02-20 00:51:00,
2013-02-19 17:02:00,28.0,23.0,29.70,WSW,247,4.0,12.0,81,0.00,,,0.00,,2013-02-20 01:02:00,
2013-02-19 17:11:00,28.0,23.0,29.70,WSW,247,4.0,12.0,81,0.00,,,0.00,,2013-02-20 01:11:00,
2013-02-19 17:21:00,28.0,23.0,29.69,SW,219,3.0,11.0,82,0.00,,,0.00,,2013-02-20 01:21:00,
2013-02-19 17:31:00,28.0,23.0,29.69,SW,219,3.0,11.0,82,0.00,,,0.00,,2013-02-20 01:31:00,
2013-02-19 17:41:00,28.0,23.0,29.69,SW,219,3.0,11.0,82,0.00,,,0.00,,2013-02-20 01:41:00,
2013-02-19 17:52:00,28.0,23.0,29.68,SSW,212,3.0,11.0,82,0.00,,,0.00,,2013-02-20 01:52:00,
2013-02-19 18:01:00,28.0,23.0,29.68,WSW,240,3.0,6.0,82,0.00,,,0.00,,2013-02-20 02:01:00,
2013-02-19 18:11:00,28.0,23.0,29.68,WSW,240,3.0,6.0,82,0.00,,,0.00,,2013-02-20 02:11:00,
2013-02-19 18:21:00,26.0,21.0,29.68,SW,216,0.0,7.0,82,0.00,,,0.00,,2013-02-20 02:21:00,
2013-02-19 18:31:00,26.0,22.0,29.67,SSW,213,2.0,9.0,86,0.00,,,0.00,,2013-02-20 02:31:00,
2013-02-19 18:41:00,26.0,22.0,29.67,SSW,213,2.0,9.0,86,0.00,,,0.00,,2013-02-20 02:41:00,
2013-02-19 18:52:00,26.0,22.0,29.67,South,185,3.0,10.0,86,0.00,,,0.00,,2013-02-20 02:52:00,
2013-02-19 19:01:00,26.0,22.0,29.67,WSW,246,3.0,9.0,86,0.00,,,0.00,,2013-02-20 03:01:00,
2013-02-19 19:11:00,26.0,22.0,29.67,WSW,246,3.0,9.0,86,0.00,,,0.00,,2013-02-20 03:11:00,
2013-02-19 19:21:00,26.0,23.0,29.66,SW,230,2.0,9.0,87,0.00,,,0.00,,2013-02-20 03:21:00,
2013-02-19 19:32:00,25.0,22.0,29.66,SW,230,5.0,10.0,87,0.00,,,0.00,,2013-02-20 03:32:00,
2013-02-19 19:41:00,25.0,22.0,29.66,SW,230,5.0,10.0,87,0.00,,,0.00,,2013-02-20 03:41:00,
2013-02-19 19:51:00,25.0,22.0,29.66,SW,224,3.0,10.0,87,0.00,,,0.00,,2013-02-20 03:51:00,
2013-02-19 20:01:00,25.0,22.0,29.65,WSW,237,3.0,9.0,87,0.00,,,0.00,,2013-02-20 04:01:00,
2013-02-19 20:11:00,25.0,22.0,29.65,WSW,237,3.0,9.0,87,0.00,,,0.00,,2013-02-20 04:11:00,
2013-02-19 20:21:00,25.0,22.0,29.65,West,261,4.0,12.0,87,0.00,,,0.00,,2013-02-20 04:21:00,
2013-02-19 20:31:00,24.0,21.0,29.65,SW,217,3.0,5.0,87,0.00,,,0.00,,2013-02-20 04:31:00,
2013-02-19 20:41:00,24.0,21.0,29.65,SW,217,3.0,5.0,87,0.00,,,0.00,,2013-02-20 04:41:00,
2013-02-19 20:51:00,24.0,21.0,29.65,SW,222,6.0,10.0,87,0.00,,,0.00,,2013-02-20 04:51:00,
2013-02-19 21:02:00,24.0,21.0,29.64,SSW,196,7.0,12.0,87,0.00,,,0.00,,2013-02-20 05:02:00,
2013-02-19 21:12:00,24.0,21.0,29.64,SSW,196,7.0,12.0,87,0.00,,,0.00,,2013-02-20 05:12:00,
2013-02-19 21:22:00,23.0,20.0,29.63,West,265,0.0,11.0,87,0.00,,,0.00,,2013-02-20 05:22:00,
2013-02-19 21:32:00,23.0,19.0,29.63,SW,217,6.0,11.0,86,0.00,,,0.00,,2013-02-20 05:32:00,
2013-02-19 21:42:00,23.0,19.0,29.63,SW,217,6.0,11.0,86,0.00,,,0.00,,2013-02-20 05:42:00,
2013-02-19 21:52:00,23.0,20.0,29.62,SW,229,8.0,16.0,87,0.00,,,0.00,,2013-02-20 05:52:00,
2013-02-19 22:01:00,23.0,20.0,29.61,SSE,160,3.0,7.0,87,0.00,,,0.00,,2013-02-20 06:01:00,
2013-02-19 22:11:00,23.0,20.0,29.61,SSE,160,3.0,7.0,87,0.00,,,0.00,,2013-02-20 06:11:00,
2013-02-19 22:21:00,23.0,20.0,29.62,SW,229,5.0,15.0,87,0.00,,,0.00,,2013-02-20 06:21:00,
2013-02-19 22:31:00,22.0,18.0,29.61,SW,226,3.0,12.0,86,0.00,,,0.00,,2013-02-20 06:31:00,
2013-02-19 22:41:00,22.0,18.0,29.61,SW,226,3.0,12.0,86,0.00,,,0.00,,2013-02-20 06:41:00,
2013-02-19 22:51:00,23.0,19.0,29.60,South,186,6.0,12.0,86,0.00,,,0.00,,2013-02-20 06:51:00,
2013-02-19 23:01:00,22.0,18.0,29.60,SW,229,6.0,19.0,86,0.00,,,0.00,,2013-02-20 07:01:00,
2013-02-19 23:11:00,22.0,18.0,29.60,SW,229,6.0,19.0,86,0.00,,,0.00,,2013-02-20 07:11:00,
2013-02-19 23:21:00,22.0,18.0,29.60,SW,232,6.0,11.0,86,0.00,,,0.00,,2013-02-20 07:21:00,
2013-02-19 23:31:00,22.0,18.0,29.60,WSW,256,3.0,12.0,85,0.00,,,0.00,,2013-02-20 07:31:00,
2013-02-19 23:42:00,22.0,18.0,29.60,WSW,256,3.0,12.0,85,0.00,,,0.00,,2013-02-20 07:42:00,
2013-02-19 23:52:00,21.0,17.0,29.59,WSW,246,0.0,0.0,86,0.00,,,0.00,,2013-02-20 07:52:00,